Time;durP1;ratioP1;P1;durP2;ratioP2;P2;SDS_P1;SDS_P2;PMS_P1;PMS_P2;Temp;Humidity;BMP_temperature;BMP_pressure;BME280_temperature;BME280_humidity;BME280_pressure;Samples;Min_cycle;Max_cycle;Signal;HPM_P1;HPM_P2
2022/07/02 05:03:59;;;;;;;1.25;1.15;;;18.30;98.90;;;;;;6054874;23;20026;31
2022/07/02 05:06:50;;;;;;;;;;;18.30;99.10;;;;;;4913425;29;20059;-82
2022/07/02 05:09:23;;;;;;;1.65;1.10;;;18.40;98.60;;;;;;4909637;29;20018;-80
2022/07/02 05:12:02;;;;;;;1.55;1.40;;;18.40;98.40;;;;;;4912677;29;20020;-80
2022/07/02 05:14:35;;;;;;;2.65;1.27;;;18.40;98.00;;;;;;4911677;29;20031;-82
2022/07/02 05:17:18;;;;;;;2.10;1.55;;;18.50;98.90;;;;;;4912334;29;20445;-80
2022/07/02 05:20:15;;;;;;;1.65;1.27;;;18.60;98.30;;;;;;4894040;29;20179;-81
2022/07/02 05:23:24;;;;;;;3.63;1.42;;;18.80;97.50;;;;;;4914616;29;20052;-80
2022/07/02 05:26:49;;;;;;;5.03;1.70;;;18.90;97.30;;;;;;4903786;29;20092;-81
2022/07/02 05:30:15;;;;;;;1.70;1.50;;;19.10;96.90;;;;;;4919161;29;20036;-81
2022/07/02 05:32:52;;;;;;;1.52;1.30;;;19.30;96.80;;;;;;4918779;29;20102;-81
2022/07/02 05:35:20;;;;;;;4.72;1.38;;;19.20;96.50;;;;;;4915984;29;20023;-80
2022/07/02 05:41:29;;;;;;;1.30;1.10;;;19.90;95.40;;;;;;4855758;29;21007;-81
2022/07/02 05:44:58;;;;;;;2.85;1.50;;;20.20;95.00;;;;;;4916695;29;20096;-81
2022/07/02 05:50:41;;;;;;;1.85;1.30;;;21.00;93.30;;;;;;5049662;23;20104;-77
2022/07/02 05:53:07;;;;;;;0.85;0.85;;;21.90;91.80;;;;;;4880038;29;20487;-77
2022/07/02 05:55:33;;;;;;;2.70;1.00;;;22.80;90.50;;;;;;4873544;29;20032;-77
2022/07/02 05:58:01;;;;;;;1.88;0.95;;;23.00;89.90;;;;;;4880061;29;20051;-77
2022/07/02 06:00:26;;;;;;;2.78;1.10;;;23.80;86.90;;;;;;4872626;29;20063;-77
2022/07/02 06:02:53;;;;;;;;;;;25.00;83.00;;;;;;4875631;29;20555;-78
2022/07/02 06:08:15;;;;;;;3.05;1.27;;;26.00;77.50;;;;;;4877822;29;20668;-77
2022/07/02 06:10:47;;;;;;;2.70;1.30;;;26.30;76.00;;;;;;4873260;29;20020;-77
2022/07/02 06:13:15;;;;;;;1.08;1.00;;;25.80;75.50;;;;;;4881279;29;20371;-76
2022/07/02 06:15:41;;;;;;;1.80;1.20;;;25.50;76.50;;;;;;4873568;29;20021;-76
2022/07/02 06:18:07;;;;;;;;;;;25.30;77.80;;;;;;4884370;29;20040;-76
2022/07/02 06:20:47;;;;;;;2.27;1.20;;;24.90;77.60;;;;;;4881361;29;19915;-76
2022/07/02 06:23:21;;;;;;;3.65;1.10;;;24.60;78.40;;;;;;4880571;29;20937;-77
2022/07/02 06:25:52;;;;;;;1.02;0.93;;;24.30;79.80;;;;;;4904080;29;20043;-83
2022/07/02 06:28:19;;;;;;;2.25;1.08;;;24.40;79.90;;;;;;5905435;23;21110;-81
2022/07/02 06:30:49;;;;;;;1.65;1.20;;;24.10;78.80;;;;;;4921472;29;20025;-82
2022/07/02 06:33:29;;;;;;;1.50;0.93;;;24.30;79.10;;;;;;4922028;29;20019;-81
2022/07/02 06:36:45;;;;;;;2.95;1.20;;;24.70;78.00;;;;;;4918989;29;20008;-82
2022/07/02 06:39:11;;;;;;;1.23;1.13;;;25.50;76.20;;;;;;4902283;29;20663;-88
2022/07/02 06:44:24;;;;;;;2.05;0.90;;;26.80;73.30;;;;;;4886318;29;19934;-83
2022/07/02 06:46:59;;;;;;;1.23;0.85;;;27.60;70.90;;;;;;4884122;29;20023;-86
2022/07/02 06:49:24;;;;;;;1.30;1.08;;;28.60;68.10;;;;;;4880197;29;20104;-72
2022/07/02 06:51:50;;;;;;;1.05;1.00;;;28.80;67.20;;;;;;4870667;29;20124;-74
2022/07/02 06:54:16;;;;;;;2.80;0.95;;;28.90;66.60;;;;;;4879883;29;20084;-75
2022/07/02 06:56:43;;;;;;;2.92;0.90;;;28.70;65.80;;;;;;4872305;29;20025;-75
2022/07/02 06:59:09;;;;;;;0.88;0.88;;;28.90;66.00;;;;;;4878026;29;20028;-75
2022/07/02 07:01:35;;;;;;;1.67;0.80;;;28.20;66.40;;;;;;4873155;29;20599;-75
2022/07/02 07:04:02;;;;;;;1.73;0.90;;;28.80;65.10;;;;;;4876434;29;20060;-74
2022/07/02 07:06:38;;;;;;;1.88;0.90;;;29.00;64.50;;;;;;4880916;29;20080;-75
2022/07/02 07:09:07;;;;;;;1.30;1.20;;;29.90;63.40;;;;;;4880264;29;20091;-75
2022/07/02 07:11:34;;;;;;;0.95;0.90;;;30.50;61.70;;;;;;4881246;29;20024;-75
2022/07/02 07:14:03;;;;;;;0.82;0.70;;;30.60;60.80;;;;;;4882640;29;20044;-75
2022/07/02 07:16:29;;;;;;;3.10;0.80;;;30.70;60.00;;;;;;4880221;29;20050;-75
2022/07/02 07:19:01;;;;;;;3.15;1.13;;;30.90;59.80;;;;;;4879430;29;20386;-75
2022/07/02 07:21:27;;;;;;;1.25;1.00;;;31.20;59.20;;;;;;4881356;29;20020;-75
2022/07/02 07:23:53;;;;;;;1.13;0.90;;;31.30;58.40;;;;;;4875744;29;20837;-74
2022/07/02 07:26:20;;;;;;;1.45;0.90;;;31.50;57.90;;;;;;4885438;29;20040;-75
2022/07/02 07:28:45;;;;;;;1.85;0.90;;;31.70;57.60;;;;;;4880523;29;20036;-76
2022/07/02 07:31:11;;;;;;;0.90;0.90;;;32.00;57.20;;;;;;4881429;29;20033;-76
2022/07/02 07:33:40;;;;;;;0.98;0.80;;;31.80;57.00;;;;;;4877039;29;20067;-75
2022/07/02 07:36:07;;;;;;;1.20;1.00;;;32.20;55.90;;;;;;4880145;29;20064;-77
2022/07/02 07:38:33;;;;;;;1.13;0.70;;;32.10;55.80;;;;;;4876024;29;20033;-76
2022/07/02 07:41:06;;;;;;;1.10;1.00;;;31.80;56.10;;;;;;4878723;29;20028;-76
2022/07/02 07:43:32;;;;;;;0.70;0.70;;;32.10;56.20;;;;;;4884570;29;20092;-76
2022/07/02 07:45:57;;;;;;;0.70;0.70;;;32.70;55.10;;;;;;4878199;29;20029;-75
2022/07/02 07:48:23;;;;;;;0.73;0.73;;;32.90;55.10;;;;;;4886175;29;20036;-75
2022/07/02 07:50:49;;;;;;;2.63;0.75;;;33.20;53.50;;;;;;4877572;29;20034;-75
2022/07/02 07:53:16;;;;;;;0.70;0.70;;;33.40;52.90;;;;;;4882978;29;20031;-76
2022/07/02 07:55:43;;;;;;;1.38;0.70;;;33.40;52.50;;;;;;4875571;29;20055;-75
2022/07/02 07:58:10;;;;;;;1.67;1.00;;;33.60;51.90;;;;;;4882334;29;20020;-75
2022/07/02 08:00:39;;;;;;;0.55;0.55;;;33.70;51.70;;;;;;4877196;29;20931;-75
2022/07/02 08:03:04;;;;;;;1.30;0.77;;;33.60;52.10;;;;;;4879489;29;20734;-72
2022/07/02 08:05:30;;;;;;;1.70;0.80;;;32.10;52.70;;;;;;4872771;29;20048;-74
2022/07/02 08:07:57;;;;;;;0.70;0.70;;;31.80;52.90;;;;;;4880007;29;20028;-74
2022/07/02 08:10:24;;;;;;;0.77;0.77;;;32.40;52.80;;;;;;4878446;29;20036;-74
2022/07/02 08:12:51;;;;;;;0.70;0.70;;;31.80;54.10;;;;;;4875021;29;20036;-75
2022/07/02 08:15:17;;;;;;;0.77;0.77;;;31.50;53.00;;;;;;4882538;29;20449;-74
2022/07/02 08:17:44;;;;;;;0.60;0.60;;;31.70;52.60;;;;;;4873618;29;20029;-74
2022/07/02 08:20:10;;;;;;;1.75;0.90;;;32.80;52.60;;;;;;4882329;29;20103;-75
2022/07/02 08:22:36;;;;;;;1.10;0.73;;;33.60;51.40;;;;;;4883882;29;20025;-75
2022/07/02 08:25:03;;;;;;;0.47;0.47;;;33.40;51.40;;;;;;4872335;29;20032;-74
2022/07/02 08:27:29;;;;;;;2.08;0.95;;;33.80;50.80;;;;;;4880426;29;20095;-75
2022/07/02 08:29:55;;;;;;;0.60;0.60;;;34.60;50.10;;;;;;4870082;29;20041;-74
2022/07/02 08:32:22;;;;;;;0.95;0.50;;;34.90;49.30;;;;;;4880000;29;20064;-74
2022/07/02 08:34:48;;;;;;;0.98;0.65;;;34.90;49.20;;;;;;4869536;29;20029;-74
2022/07/02 08:37:15;;;;;;;2.58;0.75;;;34.60;49.50;;;;;;4871150;29;20140;-75
2022/07/02 08:39:41;;;;;;;2.78;0.70;;;34.20;49.90;;;;;;4869820;29;20067;-74
2022/07/02 08:42:09;;;;;;;1.52;0.95;;;33.80;49.80;;;;;;4878602;29;20711;-75
2022/07/02 08:44:36;;;;;;;0.98;0.65;;;33.60;50.70;;;;;;4877647;29;20048;-74
2022/07/02 08:47:07;;;;;;;0.93;0.65;;;34.20;50.30;;;;;;4874445;29;20017;-74
2022/07/02 08:49:35;;;;;;;0.50;0.50;;;34.90;49.70;;;;;;4876345;29;20434;-74
2022/07/02 08:54:27;;;;;;;0.90;0.73;;;34.80;48.20;;;;;;4874569;29;20082;-74
2022/07/02 08:56:55;;;;;;;1.33;0.80;;;33.80;49.50;;;;;;4869515;29;20534;-74
2022/07/02 08:59:20;;;;;;;0.63;0.63;;;33.70;50.40;;;;;;4877376;29;20530;-74
2022/07/02 09:01:52;;;;;;;0.60;0.60;;;33.70;49.80;;;;;;4866537;29;20028;-74
2022/07/02 09:04:19;;;;;;;1.95;0.77;;;34.30;49.90;;;;;;4880396;29;20025;-74
2022/07/02 09:06:46;;;;;;;0.93;0.90;;;33.70;50.20;;;;;;4871303;29;20485;-74
2022/07/02 09:09:13;;;;;;;1.08;0.60;;;33.70;49.30;;;;;;4871876;29;20031;-74
2022/07/02 09:11:40;;;;;;;3.20;0.80;;;31.90;52.80;;;;;;4876400;29;20470;-74
2022/07/02 09:14:07;;;;;;;1.75;0.90;;;32.40;52.40;;;;;;4883829;29;20040;-74
2022/07/02 09:16:34;;;;;;;1.05;0.80;;;31.70;52.80;;;;;;4877518;29;20032;-74
2022/07/02 09:19:00;;;;;;;3.63;0.70;;;30.80;51.90;;;;;;4876342;29;20524;-74
2022/07/02 09:21:26;;;;;;;0.88;0.80;;;30.10;55.10;;;;;;4875955;29;20033;-74
2022/07/02 09:23:51;;;;;;;1.27;0.80;;;29.60;54.60;;;;;;4878169;29;20023;-73
2022/07/02 09:26:22;;;;;;;0.70;0.70;;;30.70;53.60;;;;;;4870499;29;20041;-73
2022/07/02 09:28:59;;;;;;;1.30;0.60;;;31.70;51.30;;;;;;4878319;29;20374;-73
2022/07/02 09:31:29;;;;;;;0.70;0.60;;;32.60;50.80;;;;;;4875194;29;20646;-73
2022/07/02 09:33:56;;;;;;;1.33;0.80;;;31.70;51.70;;;;;;4877310;29;20025;-73
2022/07/02 09:36:24;;;;;;;0.90;0.90;;;30.90;52.60;;;;;;4875664;29;20103;-73
2022/07/02 09:38:53;;;;;;;1.52;0.95;;;31.40;52.60;;;;;;4876408;29;20017;-73
2022/07/02 09:41:21;;;;;;;0.90;0.57;;;31.60;52.40;;;;;;4874601;29;20508;-74
2022/07/02 09:43:59;;;;;;;1.25;1.20;;;31.00;52.90;;;;;;4876841;29;20028;-73
2022/07/02 09:46:27;;;;;;;1.23;0.80;;;30.60;53.30;;;;;;4889776;29;20408;-73
2022/07/02 09:48:53;;;;;;;1.08;0.80;;;30.60;53.60;;;;;;4877101;29;20628;-73
2022/07/02 09:51:19;;;;;;;1.10;0.70;;;30.70;54.00;;;;;;4875295;29;20108;-74
2022/07/02 09:53:50;;;;;;;2.55;1.17;;;31.00;54.50;;;;;;4882176;29;20035;-73
2022/07/02 09:56:16;;;;;;;1.60;0.90;;;32.60;51.60;;;;;;4871835;29;20040;-73
2022/07/02 09:58:42;;;;;;;0.63;0.63;;;32.40;50.30;;;;;;4877580;29;20033;-73
2022/07/02 10:01:08;;;;;;;1.27;0.85;;;33.40;49.60;;;;;;4879014;29;20024;-73
2022/07/02 10:03:46;;;;;;;1.60;0.73;;;33.30;49.70;;;;;;4870510;29;20029;-73
2022/07/02 10:10:05;;;;;;;1.70;1.02;;;36.00;47.20;;;;;;4881221;29;20138;-73
2022/07/02 10:12:30;;;;;;;;;;;34.50;47.30;;;;;;4867418;29;20029;-74
2022/07/02 10:14:58;;;;;;;1.13;0.90;;;33.60;48.90;;;;;;4873852;29;19919;-74
2022/07/02 10:17:24;;;;;;;0.77;0.70;;;35.40;47.40;;;;;;4875695;29;20111;-73
2022/07/02 10:19:52;;;;;;;1.52;1.00;;;34.10;47.50;;;;;;4872428;29;20507;-73
2022/07/02 10:22:20;;;;;;;2.15;0.68;;;32.90;48.30;;;;;;4874515;29;20077;-73
2022/07/02 10:24:46;;;;;;;0.70;0.70;;;35.10;47.90;;;;;;4871783;29;20461;-74
2022/07/02 10:27:14;;;;;;;1.70;0.80;;;37.40;45.30;;;;;;4874251;29;20136;-73
2022/07/02 10:29:42;;;;;;;0.60;0.60;;;38.90;44.10;;;;;;4875689;29;20032;-73
2022/07/02 10:32:27;;;;;;;0.68;0.68;;;39.40;43.00;;;;;;4875540;29;20036;-73
2022/07/02 10:35:05;;;;;;;1.97;0.83;;;39.20;42.10;;;;;;4878554;29;20025;-76
2022/07/02 10:37:38;;;;;;;1.38;0.70;;;37.40;42.40;;;;;;4872511;29;20119;-75
2022/07/02 10:40:06;;;;;;;1.45;0.90;;;37.60;44.20;;;;;;4874638;29;20052;-74
2022/07/02 10:42:41;;;;;;;1.38;0.90;;;39.40;42.70;;;;;;4878028;29;20021;-75
2022/07/02 10:45:14;;;;;;;2.90;0.68;;;40.30;41.70;;;;;;4884229;29;20037;-76
2022/07/02 10:48:03;;;;;;;1.77;0.73;;;34.80;43.80;;;;;;4878600;29;20024;-76
2022/07/02 10:50:39;;;;;;;0.63;0.63;;;36.80;44.30;;;;;;4876443;29;20032;-76
2022/07/02 10:53:19;;;;;;;2.08;0.90;;;37.80;42.90;;;;;;4881432;29;20033;-75
2022/07/02 10:56:04;;;;;;;1.85;0.80;;;36.60;42.30;;;;;;4876598;29;20454;-75
2022/07/02 10:58:36;;;;;;;1.08;0.75;;;38.30;42.50;;;;;;4872947;29;20036;-76
2022/07/02 11:01:20;;;;;;;0.80;0.80;;;34.80;44.10;;;;;;4877948;29;20024;-74
2022/07/02 11:03:52;;;;;;;0.68;0.68;;;33.00;47.00;;;;;;4879547;29;20021;-75
2022/07/02 11:06:27;;;;;;;1.63;0.93;;;31.90;48.80;;;;;;4877516;29;20055;-75
2022/07/02 11:09:01;;;;;;;1.05;0.90;;;31.10;49.20;;;;;;4878145;29;20108;-74
2022/07/02 11:11:32;;;;;;;1.00;1.00;;;29.90;51.40;;;;;;4876302;29;20033;-74
2022/07/02 11:14:06;;;;;;;0.70;0.70;;;29.00;52.70;;;;;;4876766;29;20035;-75
2022/07/02 11:16:43;;;;;;;1.75;0.80;;;28.50;52.50;;;;;;4877996;29;20021;-76
2022/07/02 11:19:24;;;;;;;1.33;1.00;;;28.30;53.80;;;;;;4881425;29;20511;-75
2022/07/02 11:21:54;;;;;;;0.90;0.90;;;28.60;53.50;;;;;;4884545;29;20024;-73
2022/07/02 11:24:23;;;;;;;2.00;0.93;;;28.10;53.50;;;;;;4875462;29;20112;-74
2022/07/02 11:26:51;;;;;;;1.13;1.00;;;26.90;55.30;;;;;;4881881;29;20032;-74
2022/07/02 11:29:17;;;;;;;3.25;1.20;;;26.80;56.30;;;;;;4880384;29;20045;-75
2022/07/02 11:31:47;;;;;;;1.52;0.90;;;26.80;56.50;;;;;;4878508;29;20569;-74
2022/07/02 11:34:32;;;;;;;3.63;0.90;;;27.00;56.50;;;;;;4874952;29;20093;-74
2022/07/02 11:36:58;;;;;;;0.90;0.90;;;27.40;56.40;;;;;;4885344;29;20625;-74
2022/07/02 11:39:26;;;;;;;1.48;0.90;;;27.70;55.20;;;;;;4876061;29;20065;-74
2022/07/02 11:41:54;;;;;;;1.77;1.10;;;27.50;54.40;;;;;;4878125;29;20088;-75
2022/07/02 11:44:29;;;;;;;1.10;1.00;;;27.00;55.90;;;;;;4882769;29;20031;-74
2022/07/02 11:46:57;;;;;;;0.90;0.90;;;27.30;55.10;;;;;;4882512;29;20545;-74
2022/07/02 11:49:28;;;;;;;0.93;0.90;;;27.20;54.90;;;;;;4875599;29;20032;-75
2022/07/02 11:51:55;;;;;;;1.02;0.93;;;27.20;55.40;;;;;;4883370;29;20023;-73
2022/07/02 11:54:22;;;;;;;1.85;0.93;;;27.50;56.10;;;;;;4884348;29;20033;-73
2022/07/02 11:56:50;;;;;;;2.50;1.10;;;27.70;55.70;;;;;;4878031;29;20028;-74
2022/07/02 11:59:22;;;;;;;1.33;0.93;;;27.30;55.50;;;;;;4878911;29;20036;-74
2022/07/02 12:01:52;;;;;;;1.15;1.15;;;27.30;55.30;;;;;;4879981;29;20024;-74
2022/07/02 12:04:22;;;;;;;1.13;0.93;;;27.50;55.80;;;;;;4879165;29;20052;-74
2022/07/02 12:06:50;;;;;;;3.22;0.90;;;27.00;55.60;;;;;;4880462;29;20076;-74
2022/07/02 12:09:23;;;;;;;0.70;0.70;;;27.30;55.40;;;;;;4881195;29;20112;-74
2022/07/02 12:11:49;;;;;;;2.22;1.00;;;27.20;55.80;;;;;;4878912;29;20025;-74
2022/07/02 12:14:16;;;;;;;0.90;0.90;;;27.20;55.60;;;;;;4883219;29;20085;-74
2022/07/02 12:16:46;;;;;;;0.80;0.80;;;27.20;54.60;;;;;;4873324;29;20036;-74
2022/07/02 12:19:14;;;;;;;1.13;0.90;;;27.40;55.40;;;;;;4883190;29;20028;-74
2022/07/02 12:21:48;;;;;;;2.78;1.00;;;27.10;55.90;;;;;;4877511;29;20024;-74
2022/07/02 12:24:35;;;;;;;0.93;0.93;;;27.20;55.60;;;;;;4887377;29;20658;-74
2022/07/02 12:27:05;;;;;;;0.90;0.90;;;26.80;55.30;;;;;;4881975;29;20687;-74
2022/07/02 12:32:21;;;;;;;1.00;0.90;;;26.90;57.90;;;;;;4878751;29;20545;-74
2022/07/02 12:34:51;;;;;;;1.20;1.02;;;27.20;56.10;;;;;;4885176;29;20033;-74
2022/07/02 12:37:21;;;;;;;0.90;0.90;;;27.30;54.80;;;;;;4877304;29;20029;-74
2022/07/02 12:39:47;;;;;;;1.02;1.02;;;27.20;55.90;;;;;;4871536;29;20068;-74
2022/07/02 12:42:15;;;;;;;;;;;27.40;55.10;;;;;;4881116;29;20103;-74
2022/07/02 12:45:06;;;;;;;3.10;1.25;;;27.40;54.40;;;;;;4879037;29;19912;-74
2022/07/02 12:47:36;;;;;;;1.02;0.98;;;27.10;54.40;;;;;;4876186;29;21428;-75
2022/07/02 12:50:13;;;;;;;1.20;1.10;;;27.00;55.00;;;;;;4880738;29;20030;-75
2022/07/02 12:52:56;;;;;;;1.55;1.45;;;27.20;55.30;;;;;;4875013;29;20056;-75
2022/07/02 12:55:26;;;;;;;3.63;1.05;;;27.40;55.30;;;;;;4881622;29;20025;-75
2022/07/02 12:58:02;;;;;;;0.90;0.90;;;27.40;54.70;;;;;;4883326;29;20053;-76
2022/07/02 13:00:34;;;;;;;2.70;0.90;;;27.50;54.20;;;;;;4873536;29;20036;-75
2022/07/02 13:03:22;;;;;;;0.82;0.82;;;27.40;54.70;;;;;;4879289;29;20037;-77
2022/07/02 13:05:51;;;;;;;0.80;0.80;;;27.50;55.40;;;;;;4870101;29;20013;-75
2022/07/02 13:08:23;;;;;;;1.45;1.00;;;27.50;54.00;;;;;;4876615;29;20092;-75
2022/07/02 13:10:57;;;;;;;0.88;0.88;;;27.50;53.30;;;;;;4870031;29;20032;-75
2022/07/02 13:13:24;;;;;;;1.02;1.02;;;27.40;52.50;;;;;;4873026;29;20040;-75
2022/07/02 13:15:52;;;;;;;2.58;1.00;;;27.40;52.80;;;;;;4880601;29;20055;-75
2022/07/02 13:18:27;;;;;;;1.23;0.95;;;27.10;53.50;;;;;;4871162;29;20029;-77
2022/07/02 13:20:53;;;;;;;1.85;0.80;;;27.30;54.80;;;;;;4879781;29;20031;-75
2022/07/02 13:23:26;;;;;;;1.02;0.98;;;27.30;53.70;;;;;;4878426;29;20021;-74
2022/07/02 13:25:55;;;;;;;1.25;0.80;;;27.40;53.60;;;;;;4878794;29;20033;-76
2022/07/02 13:28:20;;;;;;;1.38;1.00;;;27.20;53.50;;;;;;4876241;29;20032;-75
2022/07/02 13:30:46;;;;;;;;;;;27.00;54.60;;;;;;4874483;29;20025;-76
2022/07/02 13:33:19;;;;;;;1.48;0.80;;;27.20;54.40;;;;;;4871118;29;19915;-80
2022/07/02 13:35:49;;;;;;;0.73;0.73;;;27.40;54.00;;;;;;4879222;29;20052;-76
2022/07/02 13:38:22;;;;;;;1.15;0.98;;;27.50;54.10;;;;;;4875308;29;20543;-78
2022/07/02 13:40:49;;;;;;;1.30;0.93;;;27.50;54.20;;;;;;4875285;29;20022;-76
2022/07/02 13:43:15;;;;;;;0.98;0.77;;;27.60;54.00;;;;;;4872088;29;20089;-76
2022/07/02 13:45:41;;;;;;;;;;;27.60;54.00;;;;;;4883458;29;20032;-76
2022/07/02 13:48:13;;;;;;;1.30;0.90;;;27.60;54.10;;;;;;4872346;29;20345;-75
2022/07/02 13:50:41;;;;;;;1.95;1.08;;;27.60;54.10;;;;;;4880075;29;20614;-75
2022/07/02 13:53:06;;;;;;;1.35;0.70;;;27.40;53.90;;;;;;4868325;29;20033;-75
2022/07/02 13:55:38;;;;;;;;;;;27.50;54.30;;;;;;4884287;29;20032;-76
2022/07/02 13:58:04;;;;;;;1.80;0.90;;;27.50;54.80;;;;;;4867841;29;20007;-75
2022/07/02 14:00:32;;;;;;;;;;;27.30;53.50;;;;;;4876650;29;20104;-74
2022/07/02 14:03:00;;;;;;;0.82;0.80;;;27.40;53.30;;;;;;4874953;29;20577;-74
2022/07/02 14:05:26;;;;;;;1.90;1.00;;;27.30;53.80;;;;;;4875065;29;20080;-75
2022/07/02 14:07:52;;;;;;;;;;;27.20;52.90;;;;;;4874160;29;20495;-75
2022/07/02 14:10:19;;;;;;;1.50;0.90;;;27.30;53.00;;;;;;4873971;29;19912;-75
2022/07/02 14:12:47;;;;;;;1.08;0.98;;;27.40;53.40;;;;;;4878438;29;20100;-75
2022/07/02 14:15:12;;;;;;;4.32;1.23;;;27.40;53.30;;;;;;4875315;29;20027;-75
2022/07/02 14:17:38;;;;;;;;;;;27.40;53.70;;;;;;4882724;29;20104;-75
2022/07/02 14:20:04;;;;;;;1.33;0.90;;;27.40;53.90;;;;;;4880044;29;20422;-74
2022/07/02 14:22:31;;;;;;;1.13;0.98;;;27.30;54.00;;;;;;4879417;29;20033;-74
2022/07/02 14:25:02;;;;;;;1.15;0.90;;;27.20;53.90;;;;;;4882272;29;20020;-74
2022/07/02 14:27:28;;;;;;;1.17;0.90;;;27.20;54.20;;;;;;4879355;29;20057;-75
2022/07/02 14:29:53;;;;;;;;;;;27.20;53.80;;;;;;4876805;29;20067;-75
2022/07/02 14:32:27;;;;;;;1.10;0.98;;;27.00;53.60;;;;;;4872526;29;20345;-75
2022/07/02 14:34:53;;;;;;;2.03;0.73;;;26.80;55.10;;;;;;4875749;29;20080;-74
2022/07/02 14:37:20;;;;;;;;;;;27.00;53.80;;;;;;4877779;29;20482;-74
2022/07/02 14:39:47;;;;;;;1.42;0.82;;;27.10;53.00;;;;;;4882382;29;19911;-75
2022/07/02 14:42:13;;;;;;;0.93;0.80;;;26.90;53.20;;;;;;4876548;29;20033;-74
2022/07/02 14:44:39;;;;;;;;;;;27.10;53.30;;;;;;4877918;29;20033;-76
2022/07/02 14:47:07;;;;;;;0.70;0.70;;;27.20;53.20;;;;;;4871027;29;19911;-75
2022/07/02 14:49:44;;;;;;;1.98;0.70;;;27.20;53.10;;;;;;4867970;29;20084;-76
2022/07/02 14:52:11;;;;;;;3.50;0.80;;;27.20;53.30;;;;;;4880306;29;20056;-76
2022/07/02 14:54:40;;;;;;;1.00;0.90;;;27.20;53.30;;;;;;4873340;29;20032;-75
2022/07/02 14:57:10;;;;;;;1.50;0.90;;;27.10;53.30;;;;;;4877771;29;20494;-76
2022/07/02 14:59:38;;;;;;;0.85;0.80;;;27.00;53.60;;;;;;4875751;29;20029;-76
2022/07/02 15:02:08;;;;;;;0.88;0.88;;;27.00;53.90;;;;;;4880476;29;20066;-75
2022/07/02 15:04:35;;;;;;;0.70;0.70;;;26.80;54.10;;;;;;4872565;29;20020;-75
2022/07/02 15:07:01;;;;;;;0.70;0.70;;;26.80;54.00;;;;;;4873824;29;20029;-75
2022/07/02 15:09:28;;;;;;;;;;;26.80;52.90;;;;;;4879766;29;20506;-76
2022/07/02 15:12:03;;;;;;;0.70;0.70;;;26.90;53.20;;;;;;4871573;29;19912;-76
2022/07/02 15:17:15;;;;;;;1.10;1.00;;;26.80;53.00;;;;;;4878961;29;20064;-76
2022/07/02 15:19:48;;;;;;;0.80;0.80;;;26.60;53.60;;;;;;4871662;29;20112;-75
2022/07/02 15:22:20;;;;;;;0.95;0.95;;;26.70;53.80;;;;;;4880284;29;20024;-76
2022/07/02 15:24:52;;;;;;;1.10;0.93;;;26.70;53.40;;;;;;4868784;29;20052;-76
2022/07/02 15:27:21;;;;;;;0.88;0.88;;;26.70;53.60;;;;;;4885520;29;20029;-77
2022/07/02 15:30:02;;;;;;;2.47;1.25;;;26.70;52.80;;;;;;4870393;29;20036;-76
2022/07/02 15:32:28;;;;;;;1.30;1.00;;;26.70;53.40;;;;;;4877630;29;20037;-77
2022/07/02 15:34:57;;;;;;;1.20;1.10;;;26.60;53.80;;;;;;4870963;29;20371;-76
2022/07/02 15:37:23;;;;;;;1.13;0.90;;;26.60;54.30;;;;;;4877598;29;20056;-76
2022/07/02 15:39:56;;;;;;;;;;;26.60;54.40;;;;;;4874412;29;20056;-77
2022/07/02 15:42:27;;;;;;;1.25;1.10;;;26.70;53.70;;;;;;4873829;29;19960;-76
2022/07/02 15:44:58;;;;;;;1.15;1.00;;;26.60;54.40;;;;;;4873207;29;20032;-76
2022/07/02 15:47:30;;;;;;;1.52;1.00;;;26.60;54.10;;;;;;4875589;29;20029;-76
2022/07/02 15:49:58;;;;;;;0.70;0.70;;;26.40;54.20;;;;;;4868173;29;20027;-76
2022/07/02 15:53:04;;;;;;;0.85;0.80;;;26.40;54.20;;;;;;4880168;29;20080;-76
2022/07/02 15:55:36;;;;;;;1.55;1.17;;;26.30;54.70;;;;;;4887376;29;20043;-76
2022/07/02 15:58:16;;;;;;;2.03;1.60;;;26.30;54.60;;;;;;4876050;29;20044;-76
2022/07/02 16:00:47;;;;;;;2.53;1.00;;;26.40;54.10;;;;;;4870676;29;20032;-77
2022/07/02 16:03:25;;;;;;;2.30;1.83;;;26.40;54.30;;;;;;4878750;29;20340;-76
2022/07/02 16:05:54;;;;;;;4.63;2.88;;;26.20;54.90;;;;;;4874375;29;20048;-76
2022/07/02 16:08:24;;;;;;;13.70;7.63;;;26.30;55.10;;;;;;4875488;29;20027;-75
2022/07/02 16:10:51;;;;;;;2.47;1.38;;;26.30;55.00;;;;;;4876002;29;20028;-75
2022/07/02 16:13:18;;;;;;;1.98;1.20;;;26.30;54.60;;;;;;4877685;29;20033;-75
2022/07/02 16:15:48;;;;;;;2.42;1.42;;;26.20;55.40;;;;;;4873217;29;20013;-75
2022/07/02 16:18:16;;;;;;;2.50;1.40;;;26.10;55.60;;;;;;4878025;29;20025;-76
2022/07/02 16:20:49;;;;;;;1.40;1.30;;;26.00;55.80;;;;;;4869269;29;20671;-75
2022/07/02 16:23:18;;;;;;;1.85;1.42;;;26.00;56.30;;;;;;4882277;29;20570;-76
2022/07/02 16:25:51;;;;;;;5.30;3.55;;;26.00;56.10;;;;;;4874289;29;20017;-76
2022/07/02 16:28:17;;;;;;;2.33;2.13;;;26.00;55.80;;;;;;4881065;29;20025;-78
2022/07/02 16:30:53;;;;;;;2.83;1.60;;;26.10;56.40;;;;;;4867986;29;20033;-75
2022/07/02 16:33:40;;;;;;;1.30;1.20;;;26.20;56.00;;;;;;4879578;29;20065;-75
2022/07/02 16:36:12;;;;;;;2.08;1.23;;;26.10;55.90;;;;;;4871204;29;20084;-75
2022/07/02 16:38:43;;;;;;;1.20;1.10;;;26.10;56.00;;;;;;4873333;29;20029;-77
2022/07/02 16:41:10;;;;;;;1.83;1.65;;;26.10;56.30;;;;;;4883109;29;20053;-75
2022/07/02 16:43:40;;;;;;;1.20;1.10;;;26.10;57.60;;;;;;4868352;29;20075;-72
2022/07/02 16:46:08;;;;;;;4.10;1.73;;;25.90;57.10;;;;;;4877555;29;20029;-73
2022/07/02 16:48:46;;;;;;;1.30;1.20;;;25.90;58.80;;;;;;4873694;29;20016;-78
2022/07/02 16:51:13;;;;;;;1.27;1.17;;;25.90;57.10;;;;;;4880816;29;20055;-77
2022/07/02 16:53:40;;;;;;;1.30;1.20;;;25.90;57.00;;;;;;4875878;29;20021;-77
2022/07/02 16:56:08;;;;;;;1.30;1.10;;;25.80;57.90;;;;;;4876036;29;20033;-72
2022/07/02 16:58:35;;;;;;;1.67;1.00;;;25.80;58.70;;;;;;4873770;29;20521;-71
2022/07/02 17:01:03;;;;;;;1.20;1.10;;;25.80;58.10;;;;;;4872246;29;20035;-72
2022/07/02 17:03:30;;;;;;;1.10;1.10;;;25.80;57.90;;;;;;4881414;29;20021;-73
2022/07/02 17:05:56;;;;;;;1.90;1.27;;;25.80;58.40;;;;;;4868223;29;20025;-72
2022/07/02 17:08:22;;;;;;;;;;;25.80;57.80;;;;;;4875278;29;20052;-72
2022/07/02 17:13:46;;;;;;;3.38;1.40;;;25.80;59.00;;;;;;4850815;29;20072;-74
2022/07/02 17:16:16;;;;;;;;;;;25.80;58.60;;;;;;4874340;29;20021;-75
2022/07/02 17:18:42;;;;;;;1.08;1.00;;;25.80;58.80;;;;;;4871851;29;19919;-75
2022/07/02 17:21:07;;;;;;;1.17;1.17;;;25.60;58.50;;;;;;4869805;29;20055;-76
2022/07/02 17:23:33;;;;;;;;;;;25.40;58.30;;;;;;4875799;29;20033;-76
2022/07/02 17:26:05;;;;;;;2.35;1.20;;;25.30;58.80;;;;;;4870789;29;19915;-75
2022/07/02 17:28:30;;;;;;;1.60;0.90;;;25.20;59.60;;;;;;4872298;29;20033;-81
2022/07/02 17:30:57;;;;;;;1.30;1.20;;;25.20;59.90;;;;;;4871263;29;21017;-75
2022/07/02 17:33:25;;;;;;;1.70;1.25;;;25.30;60.50;;;;;;4881688;29;20099;-76
2022/07/02 17:35:50;;;;;;;1.35;1.25;;;25.20;59.40;;;;;;4869974;29;20036;-75
2022/07/02 17:38:23;;;;;;;1.23;1.13;;;25.20;60.50;;;;;;4875972;29;20032;-76
2022/07/02 17:40:49;;;;;;;1.50;1.40;;;25.20;60.80;;;;;;4867252;29;20029;-76
2022/07/02 17:43:16;;;;;;;1.52;1.42;;;25.20;60.10;;;;;;4872488;29;20025;-74
2022/07/02 17:45:52;;;;;;;2.65;1.40;;;25.10;60.60;;;;;;4876974;29;20031;-76
2022/07/02 17:48:26;;;;;;;1.40;1.30;;;24.80;61.20;;;;;;4881692;29;20024;-75
2022/07/02 17:50:53;;;;;;;1.77;1.35;;;24.60;61.80;;;;;;4868985;29;20021;-74
2022/07/02 17:53:19;;;;;;;1.50;1.40;;;24.60;62.10;;;;;;4878191;29;20021;-75
2022/07/02 17:55:45;;;;;;;2.15;1.48;;;24.60;62.30;;;;;;4869858;29;20104;-75
2022/07/02 17:58:13;;;;;;;1.98;1.45;;;24.50;62.70;;;;;;4880946;29;20160;-75
2022/07/02 18:00:45;;;;;;;2.00;1.80;;;24.40;62.90;;;;;;4866551;29;20160;-75
2022/07/02 18:03:12;;;;;;;3.28;1.60;;;24.30;63.70;;;;;;4876805;29;20017;-75
2022/07/02 18:05:39;;;;;;;2.20;1.80;;;24.30;63.30;;;;;;4872045;29;20021;-75
2022/07/02 18:08:06;;;;;;;1.70;1.60;;;24.30;63.80;;;;;;4874449;29;20454;-75
2022/07/02 18:10:41;;;;;;;1.92;1.40;;;24.30;64.10;;;;;;4869671;29;20438;-75
2022/07/02 18:13:09;;;;;;;1.73;1.38;;;24.30;64.40;;;;;;4872844;29;20100;-75
2022/07/02 18:15:35;;;;;;;1.65;1.55;;;24.20;64.10;;;;;;4873098;29;20031;-75
2022/07/02 18:18:04;;;;;;;6.10;1.60;;;24.10;64.20;;;;;;4867484;29;20745;-76
2022/07/02 18:20:36;;;;;;;2.22;1.50;;;24.00;65.00;;;;;;4874456;29;20047;-75
2022/07/02 18:23:05;;;;;;;4.65;1.80;;;24.00;66.00;;;;;;4871297;29;20029;-75
2022/07/02 18:25:33;;;;;;;2.20;2.00;;;23.90;65.70;;;;;;4875870;29;20065;-75
2022/07/02 18:28:05;;;;;;;3.67;1.85;;;24.00;66.00;;;;;;4874413;29;20034;-75
2022/07/02 18:30:35;;;;;;;2.15;1.60;;;24.10;66.50;;;;;;4877518;29;20041;-75
2022/07/02 18:33:05;;;;;;;1.40;1.30;;;24.20;65.50;;;;;;4870886;29;20534;-75
2022/07/02 18:35:35;;;;;;;3.10;1.70;;;24.00;66.30;;;;;;4874083;29;20028;-75
2022/07/02 18:38:01;;;;;;;1.70;1.60;;;24.00;67.00;;;;;;4870636;29;20149;-76
2022/07/02 18:40:27;;;;;;;1.70;1.60;;;23.80;67.60;;;;;;4875953;29;20132;-74